createdAt,value
2017-11-06T00:00:34.483Z,4.90
2017-11-06T00:03:02.580Z,4.90
2017-11-06T00:05:30.651Z,5.00
2017-11-06T00:07:58.736Z,4.90
2017-11-06T00:10:26.828Z,4.90
2017-11-06T00:12:54.937Z,5.00
2017-11-06T00:15:23.024Z,4.90
2017-11-06T00:17:51.118Z,4.90
2017-11-06T00:20:19.212Z,4.90
2017-11-06T00:22:47.303Z,4.90
2017-11-06T00:25:16.154Z,5.00
2017-11-06T00:27:44.239Z,5.00
2017-11-06T00:30:12.354Z,5.00
2017-11-06T00:32:40.437Z,5.00
2017-11-06T00:35:08.525Z,5.00
2017-11-06T00:37:36.613Z,5.00
2017-11-06T00:40:04.700Z,5.10
2017-11-06T00:42:33.562Z,5.30
2017-11-06T00:45:01.635Z,5.30
2017-11-06T00:47:29.711Z,5.00
2017-11-06T00:49:57.794Z,5.10
2017-11-06T00:52:25.881Z,5.10
2017-11-06T00:54:54.731Z,5.50
2017-11-06T00:57:22.820Z,5.50
2017-11-06T00:59:51.128Z,5.40
2017-11-06T01:02:19.978Z,5.00
2017-11-06T01:04:48.071Z,5.00
2017-11-06T01:07:16.928Z,5.20
2017-11-06T01:09:45.019Z,5.20
2017-11-06T01:12:13.106Z,5.10
2017-11-06T01:14:41.244Z,4.90
2017-11-06T01:17:09.429Z,5.10
2017-11-06T01:19:37.511Z,4.90
2017-11-06T01:22:05.772Z,5.00
2017-11-06T01:24:33.891Z,4.90
2017-11-06T01:27:01.974Z,4.90
2017-11-06T01:29:30.190Z,4.90
2017-11-06T01:31:58.346Z,4.80
2017-11-06T01:34:26.440Z,4.90
2017-11-06T01:36:54.511Z,4.80
2017-11-06T01:39:23.379Z,4.80
2017-11-06T01:41:51.464Z,4.80
2017-11-06T01:44:19.551Z,4.80
2017-11-06T01:46:48.515Z,4.90
2017-11-06T01:49:16.612Z,4.90
2017-11-06T01:51:44.703Z,5.10
2017-11-06T01:54:12.805Z,5.20
2017-11-06T01:56:40.891Z,5.30
2017-11-06T01:59:09.072Z,5.30
2017-11-06T02:01:37.342Z,5.30
2017-11-06T02:04:06.264Z,5.00
2017-11-06T02:06:34.353Z,4.90
2017-11-06T02:09:02.471Z,4.90
2017-11-06T02:11:30.569Z,5.00
2017-11-06T02:13:59.443Z,5.00
2017-11-06T02:16:42.443Z,5.00
2017-11-06T02:19:10.536Z,5.20
2017-11-06T02:21:38.703Z,5.30
2017-11-06T02:24:06.880Z,5.30
2017-11-06T02:26:34.967Z,5.40
2017-11-06T02:29:03.818Z,5.40
2017-11-06T02:31:31.904Z,5.40
2017-11-06T02:33:59.992Z,5.30
2017-11-06T02:36:28.834Z,5.30
2017-11-06T02:38:56.932Z,5.30
2017-11-06T02:41:25.028Z,5.30
2017-11-06T02:43:53.893Z,5.20
2017-11-06T02:46:21.972Z,5.10
2017-11-06T02:48:50.055Z,5.30
2017-11-06T02:51:18.895Z,4.90
2017-11-06T02:53:46.979Z,4.90
2017-11-06T02:56:15.068Z,4.90
2017-11-06T02:58:43.146Z,4.90
2017-11-06T03:01:12.069Z,5.20
2017-11-06T03:03:40.165Z,5.20
2017-11-06T03:06:08.249Z,5.10
2017-11-06T03:08:36.345Z,5.20
2017-11-06T03:11:04.410Z,5.30
2017-11-06T03:13:33.277Z,5.20
2017-11-06T03:16:01.357Z,5.10
2017-11-06T03:18:29.452Z,5.00
2017-11-06T03:20:58.315Z,5.00
2017-11-06T03:23:26.402Z,4.90
2017-11-06T03:25:54.483Z,4.90
2017-11-06T03:28:23.345Z,5.20
2017-11-06T03:30:51.656Z,5.20
2017-11-06T03:33:20.496Z,5.10
2017-11-06T03:35:48.575Z,5.10
2017-11-06T03:38:16.879Z,5.10
2017-11-06T03:40:45.738Z,5.10
2017-11-06T03:43:13.823Z,5.10
2017-11-06T03:45:41.919Z,5.00
2017-11-06T03:48:10.008Z,5.20
2017-11-06T03:50:38.093Z,5.30
2017-11-06T03:53:06.176Z,5.30
2017-11-06T03:55:34.369Z,5.30
2017-11-06T03:58:04.085Z,5.00
2017-11-06T04:00:32.174Z,5.00
2017-11-06T04:03:00.268Z,5.00
2017-11-06T04:05:28.367Z,5.20
2017-11-06T04:07:56.477Z,5.00
2017-11-06T04:10:24.633Z,5.20
2017-11-06T04:12:52.708Z,5.30
2017-11-06T04:15:20.808Z,5.30
2017-11-06T04:17:48.928Z,5.20
2017-11-06T04:20:17.164Z,5.30
2017-11-06T04:22:45.343Z,5.30
2017-11-06T04:25:13.433Z,5.20
2017-11-06T04:27:41.614Z,5.40
2017-11-06T04:30:09.812Z,5.40
2017-11-06T04:32:37.967Z,5.40
2017-11-06T04:35:06.059Z,5.40
2017-11-06T04:37:34.143Z,5.30
2017-11-06T04:40:02.995Z,5.20
2017-11-06T04:42:31.070Z,5.20
2017-11-06T04:44:59.171Z,5.00
2017-11-06T04:47:28.005Z,5.20
2017-11-06T04:49:56.085Z,5.20
2017-11-06T04:52:24.176Z,5.30
2017-11-06T04:54:52.259Z,5.30
2017-11-06T04:57:21.136Z,5.40
2017-11-06T04:59:49.220Z,5.30
2017-11-06T05:02:17.298Z,5.30
2017-11-06T05:04:46.138Z,5.20
2017-11-06T05:07:14.223Z,5.20
2017-11-06T05:09:42.310Z,4.90
2017-11-06T05:12:10.389Z,4.80
2017-11-06T05:14:38.463Z,5.00
2017-11-06T05:17:07.315Z,5.30
2017-11-06T05:19:35.463Z,5.30
2017-11-06T05:22:03.587Z,5.30
2017-11-06T05:24:31.687Z,5.30
2017-11-06T05:26:59.772Z,5.30
2017-11-06T05:29:27.858Z,5.30
2017-11-06T05:31:55.951Z,5.30
2017-11-06T05:34:24.034Z,5.40
2017-11-06T05:36:52.130Z,5.40
2017-11-06T05:39:21.095Z,5.40
2017-11-06T05:41:49.181Z,5.40
2017-11-06T05:44:17.268Z,5.50
2017-11-06T05:46:45.339Z,5.40
2017-11-06T05:49:13.526Z,5.40
2017-11-06T05:51:41.665Z,5.40
2017-11-06T05:54:09.752Z,5.50
2017-11-06T05:56:37.863Z,5.50
2017-11-06T05:59:05.917Z,5.50
2017-11-06T06:01:34.126Z,5.50
2017-11-06T06:04:02.207Z,5.50
2017-11-06T06:06:30.302Z,5.50
2017-11-06T06:08:59.151Z,5.40
2017-11-06T06:11:27.231Z,5.40
2017-11-06T06:13:55.303Z,5.50
2017-11-06T06:16:23.379Z,5.40
2017-11-06T06:18:52.234Z,5.40
2017-11-06T06:21:20.335Z,5.40
2017-11-06T06:23:48.416Z,5.40
2017-11-06T06:26:17.291Z,5.20
2017-11-06T06:28:45.363Z,5.20
2017-11-06T06:31:13.447Z,5.30
2017-11-06T06:33:42.307Z,5.30
2017-11-06T06:36:10.411Z,5.30
2017-11-06T06:38:39.472Z,5.50
2017-11-06T06:41:07.557Z,5.40
2017-11-06T06:43:35.635Z,5.50
2017-11-06T06:46:04.503Z,5.60
2017-11-06T06:48:32.594Z,5.60
2017-11-06T06:51:00.669Z,5.50
2017-11-06T06:53:29.515Z,5.20
2017-11-06T06:55:57.836Z,5.20
2017-11-06T06:58:25.921Z,5.40
2017-11-06T07:00:54.011Z,5.40
2017-11-06T07:03:22.917Z,5.40
2017-11-06T07:05:50.972Z,5.30
2017-11-06T07:08:19.829Z,5.50
2017-11-06T07:10:47.916Z,5.50
2017-11-06T07:13:15.988Z,5.60
2017-11-06T07:15:44.079Z,5.50
2017-11-06T07:18:12.940Z,5.50
2017-11-06T07:20:41.036Z,5.60
2017-11-06T07:23:09.888Z,5.20
2017-11-06T07:25:37.991Z,5.20
2017-11-06T07:28:06.839Z,5.40
2017-11-06T07:30:34.928Z,5.40
2017-11-06T07:33:03.018Z,5.50
2017-11-06T07:35:31.863Z,5.60
2017-11-06T07:37:59.940Z,5.60
2017-11-06T07:40:28.035Z,5.50
2017-11-06T07:42:56.110Z,5.60
2017-11-06T07:45:24.203Z,5.70
2017-11-06T07:47:52.288Z,5.70
2017-11-06T07:50:20.387Z,5.70
2017-11-06T07:52:48.477Z,5.90
2017-11-06T07:55:16.567Z,5.90
2017-11-06T07:57:44.645Z,5.90
2017-11-06T08:00:13.491Z,5.80
2017-11-06T08:02:41.569Z,5.80
2017-11-06T08:05:09.668Z,5.80
2017-11-06T08:07:38.521Z,5.90
2017-11-06T08:10:06.717Z,5.90
2017-11-06T08:12:34.822Z,5.80
2017-11-06T08:15:02.917Z,5.60
2017-11-06T08:17:31.002Z,5.70
2017-11-06T08:19:59.098Z,5.70
2017-11-06T08:22:27.191Z,5.80
2017-11-06T08:24:56.031Z,5.60
2017-11-06T08:27:24.111Z,5.60
2017-11-06T08:29:52.199Z,5.70
2017-11-06T08:32:20.291Z,5.60
2017-11-06T08:34:49.131Z,5.50
2017-11-06T08:37:17.210Z,5.50
2017-11-06T08:39:45.301Z,5.50
2017-11-06T08:42:13.397Z,5.50
2017-11-06T08:44:42.234Z,5.60
2017-11-06T08:47:10.319Z,5.60
2017-11-06T08:49:38.404Z,5.60
2017-11-06T08:52:06.491Z,5.70
2017-11-06T08:54:35.335Z,5.80
2017-11-06T08:57:03.433Z,5.70
2017-11-06T08:59:31.671Z,5.80
2017-11-06T09:01:59.771Z,5.80
2017-11-06T09:04:28.142Z,5.80
2017-11-06T09:06:56.232Z,5.90
2017-11-06T09:09:25.067Z,6.00
2017-11-06T09:11:53.169Z,6.00
2017-11-06T09:14:21.248Z,6.00
2017-11-06T09:16:49.339Z,6.00
2017-11-06T09:19:18.199Z,6.20
2017-11-06T09:21:46.287Z,6.20
2017-11-06T09:24:15.136Z,6.30
2017-11-06T09:26:43.222Z,6.30
2017-11-06T09:29:11.312Z,6.40
2017-11-06T09:31:39.399Z,6.40
2017-11-06T09:34:08.239Z,6.40
2017-11-06T09:36:36.331Z,6.40
2017-11-06T09:39:04.423Z,6.40
2017-11-06T09:41:33.276Z,6.60
2017-11-06T09:44:01.351Z,6.60
2017-11-06T09:46:29.446Z,6.60
2017-11-06T09:48:58.292Z,6.80
2017-11-06T09:51:26.376Z,6.80
2017-11-06T09:53:54.451Z,6.70
2017-11-06T09:56:22.532Z,6.70
2017-11-06T09:58:50.608Z,6.70
2017-11-06T10:01:18.693Z,6.70
2017-11-06T10:03:47.535Z,6.70
2017-11-06T10:06:15.631Z,6.70
2017-11-06T10:08:43.710Z,6.80
2017-11-06T10:11:12.571Z,6.80
2017-11-06T10:13:40.653Z,6.90
2017-11-06T10:16:08.756Z,6.70
2017-11-06T10:18:37.611Z,6.90
2017-11-06T10:21:05.691Z,6.90
2017-11-06T10:23:33.818Z,6.90
2017-11-06T10:26:01.894Z,6.90
2017-11-06T10:28:29.979Z,7.00
2017-11-06T10:30:58.059Z,7.00
2017-11-06T10:33:26.184Z,7.00
2017-11-06T10:35:54.345Z,7.00
2017-11-06T10:38:22.448Z,7.00
2017-11-06T10:40:50.523Z,7.00
2017-11-06T10:43:18.616Z,7.00
2017-11-06T10:45:46.707Z,7.10
2017-11-06T10:48:14.795Z,7.10
2017-11-06T10:50:43.634Z,7.30
2017-11-06T10:53:11.734Z,7.30
2017-11-06T10:55:40.586Z,7.40
2017-11-06T10:58:09.046Z,7.30
2017-11-06T11:00:37.263Z,7.30
2017-11-06T11:03:05.540Z,7.20
2017-11-06T11:05:33.623Z,7.20
2017-11-06T11:08:01.888Z,7.30
2017-11-06T11:10:29.978Z,7.30
2017-11-06T11:12:58.834Z,7.20
2017-11-06T11:15:26.918Z,7.20
2017-11-06T11:17:55.007Z,7.10
2017-11-06T11:20:23.858Z,7.30
2017-11-06T11:22:51.944Z,7.30
2017-11-06T11:25:20.028Z,7.30
2017-11-06T11:27:48.114Z,7.40
2017-11-06T11:30:16.196Z,7.50
2017-11-06T11:32:44.278Z,7.40
2017-11-06T11:35:12.347Z,7.50
2017-11-06T11:37:40.427Z,7.50
2017-11-06T11:40:08.513Z,7.50
2017-11-06T11:42:36.588Z,7.60
2017-11-06T11:45:04.689Z,7.50
2017-11-06T11:47:32.755Z,7.60
2017-11-06T11:50:01.592Z,7.40
2017-11-06T11:52:29.681Z,7.40
2017-11-06T11:54:57.758Z,7.40
2017-11-06T11:57:25.851Z,7.40
2017-11-06T11:59:53.932Z,7.40
2017-11-06T12:02:22.780Z,7.40
2017-11-06T12:04:50.884Z,7.40
2017-11-06T12:07:19.039Z,7.30
2017-11-06T12:09:47.110Z,7.20
2017-11-06T12:12:15.201Z,7.20
2017-11-06T12:14:44.035Z,7.20
2017-11-06T12:17:12.123Z,7.20
2017-11-06T12:19:40.206Z,7.20
2017-11-06T12:22:08.282Z,7.20
2017-11-06T12:24:36.367Z,7.20
2017-11-06T12:27:04.441Z,7.20
2017-11-06T12:29:33.284Z,7.20
2017-11-06T12:32:01.383Z,7.20
2017-11-06T12:34:29.633Z,7.20
2017-11-06T12:36:58.104Z,7.10
2017-11-06T12:39:26.190Z,7.10
2017-11-06T12:41:54.251Z,7.10
2017-11-06T12:44:22.340Z,7.00
2017-11-06T12:46:50.414Z,6.90
2017-11-06T12:49:18.495Z,6.90
2017-11-06T12:51:46.563Z,7.00
2017-11-06T12:54:14.652Z,7.00
2017-11-06T12:56:43.493Z,7.10
2017-11-06T12:59:11.575Z,7.10
2017-11-06T13:01:39.639Z,7.10
2017-11-06T13:04:07.714Z,7.10
2017-11-06T13:06:35.785Z,7.10
2017-11-06T13:09:03.881Z,7.10
2017-11-06T13:11:32.727Z,7.10
2017-11-06T13:14:00.803Z,7.10
2017-11-06T13:16:28.882Z,7.10
2017-11-06T13:18:56.954Z,7.10
2017-11-06T13:21:25.033Z,7.10
2017-11-06T13:23:53.111Z,7.10
2017-11-06T13:26:21.179Z,7.10
2017-11-06T13:28:49.259Z,7.10
2017-11-06T13:31:18.102Z,7.10
2017-11-06T13:33:46.180Z,7.10
2017-11-06T13:36:14.261Z,7.10
2017-11-06T13:38:42.332Z,7.00
2017-11-06T13:41:10.483Z,7.00
2017-11-06T13:43:38.687Z,7.10
2017-11-06T13:46:06.751Z,7.10
2017-11-06T13:48:34.834Z,7.10
2017-11-06T13:51:02.919Z,7.10
2017-11-06T13:53:31.755Z,7.10
2017-11-06T13:55:59.831Z,7.10
2017-11-06T13:58:27.925Z,7.20
2017-11-06T14:00:56.011Z,7.20
2017-11-06T14:03:24.856Z,7.10
2017-11-06T14:05:52.952Z,7.10
2017-11-06T14:08:21.034Z,7.00
2017-11-06T14:10:49.122Z,7.00
2017-11-06T14:13:17.954Z,7.00
2017-11-06T14:15:46.028Z,6.90
2017-11-06T14:18:14.118Z,6.90
2017-11-06T14:20:42.190Z,6.90
2017-11-06T14:23:10.275Z,6.90
2017-11-06T14:25:38.352Z,6.80
2017-11-06T14:28:07.202Z,6.70
2017-11-06T14:30:35.272Z,6.70
2017-11-06T14:33:03.360Z,6.70
2017-11-06T14:35:31.438Z,6.70
2017-11-06T14:37:59.523Z,6.70
2017-11-06T14:40:28.354Z,6.70
2017-11-06T14:42:56.436Z,6.70
2017-11-06T14:45:24.627Z,6.60
2017-11-06T14:47:52.805Z,6.60
2017-11-06T14:50:20.876Z,6.70
2017-11-06T14:52:49.146Z,6.70
2017-11-06T14:55:17.296Z,6.70
2017-11-06T14:57:45.375Z,6.60
2017-11-06T15:00:13.453Z,6.70
2017-11-06T15:02:41.534Z,6.70
2017-11-06T15:05:09.726Z,6.70
2017-11-06T15:07:37.913Z,6.60
2017-11-06T15:10:06.869Z,6.70
2017-11-06T15:12:35.140Z,6.60
2017-11-06T15:15:03.212Z,6.70
2017-11-06T15:17:31.281Z,6.60
2017-11-06T15:19:59.371Z,6.60
2017-11-06T15:22:27.432Z,6.60
2017-11-06T15:24:55.502Z,6.60
2017-11-06T15:27:23.574Z,6.60
2017-11-06T15:29:52.428Z,6.50
2017-11-06T15:32:20.523Z,6.50
2017-11-06T15:34:48.600Z,6.50
2017-11-06T15:37:16.684Z,6.60
2017-11-06T15:39:44.936Z,6.60
2017-11-06T15:42:13.024Z,6.40
2017-11-06T15:44:41.099Z,6.40
2017-11-06T15:47:09.939Z,6.50
2017-11-06T15:49:38.008Z,6.50
2017-11-06T15:52:06.078Z,6.50
2017-11-06T15:54:34.148Z,6.50
2017-11-06T15:57:02.219Z,6.50
2017-11-06T15:59:30.299Z,6.40
2017-11-06T16:01:58.380Z,6.40
2017-11-06T16:04:26.467Z,6.40
2017-11-06T16:06:54.541Z,6.40
2017-11-06T16:09:22.615Z,6.30
2017-11-06T16:11:51.459Z,6.40
2017-11-06T16:14:20.282Z,6.40
2017-11-06T16:16:48.367Z,6.40
2017-11-06T16:19:17.207Z,6.30
2017-11-06T16:21:45.285Z,6.30
2017-11-06T16:24:13.359Z,6.40
2017-11-06T16:26:41.435Z,6.40
2017-11-06T16:29:09.560Z,6.30
2017-11-06T16:31:37.628Z,6.30
2017-11-06T16:34:06.623Z,6.30
2017-11-06T16:36:34.698Z,6.30
2017-11-06T16:39:02.782Z,6.40
2017-11-06T16:41:30.838Z,6.30
2017-11-06T16:43:58.959Z,6.30
2017-11-06T16:46:27.011Z,6.30
2017-11-06T16:48:55.091Z,6.40
2017-11-06T16:51:23.222Z,6.40
2017-11-06T16:53:51.310Z,6.40
2017-11-06T16:56:19.400Z,6.40
2017-11-06T16:58:47.492Z,6.40
2017-11-06T17:01:16.342Z,6.30
2017-11-06T17:03:44.516Z,6.30
2017-11-06T17:06:12.586Z,6.30
2017-11-06T17:08:40.655Z,6.30
2017-11-06T17:11:08.739Z,6.20
2017-11-06T17:13:36.816Z,6.30
2017-11-06T17:16:04.907Z,6.30
2017-11-06T17:18:33.863Z,6.30
2017-11-06T17:21:06.424Z,6.30
2017-11-06T17:23:37.879Z,6.30
2017-11-06T17:26:06.230Z,6.30
2017-11-06T17:31:35.506Z,6.20
2017-11-06T17:34:03.579Z,6.20
2017-11-06T17:36:31.659Z,6.20
2017-11-06T17:38:59.726Z,6.20
2017-11-06T17:41:27.859Z,6.20
2017-11-06T17:43:56.048Z,6.20
2017-11-06T17:46:24.123Z,6.20
2017-11-06T17:48:52.198Z,6.20
2017-11-06T17:51:20.327Z,6.20
2017-11-06T17:53:49.417Z,6.20
2017-11-06T17:56:17.499Z,6.20
2017-11-06T17:58:45.574Z,6.10
2017-11-06T18:01:13.696Z,6.20
2017-11-06T18:03:41.768Z,6.20
2017-11-06T18:06:09.848Z,6.10
2017-11-06T18:08:37.912Z,6.10
2017-11-06T18:11:05.998Z,6.00
2017-11-06T18:13:34.079Z,6.10
2017-11-06T18:16:02.164Z,6.10
2017-11-06T18:18:30.235Z,6.10
2017-11-06T18:20:58.315Z,6.10
2017-11-06T18:23:26.380Z,6.10
2017-11-06T18:25:54.451Z,6.10
2017-11-06T18:28:22.527Z,6.10
2017-11-06T18:30:50.661Z,6.20
2017-11-06T18:33:18.732Z,6.10
2017-11-06T18:35:46.820Z,6.10
2017-11-06T18:38:14.889Z,6.00
2017-11-06T18:40:42.973Z,6.10
2017-11-06T18:43:11.051Z,6.10
2017-11-06T18:45:39.131Z,6.10
2017-11-06T18:48:07.196Z,6.10
2017-11-06T18:50:35.276Z,6.10
2017-11-06T18:53:03.351Z,6.10
2017-11-06T18:55:32.220Z,6.10
2017-11-06T18:58:00.288Z,6.10
2017-11-06T19:00:28.359Z,6.20
2017-11-06T19:02:56.435Z,6.10
2017-11-06T19:05:24.529Z,6.10
2017-11-06T19:07:53.391Z,6.10
2017-11-06T19:10:22.980Z,6.10
2017-11-06T19:12:51.067Z,6.10
2017-11-06T19:15:19.153Z,6.10
2017-11-06T19:17:47.312Z,6.10
2017-11-06T19:20:17.023Z,6.10
2017-11-06T19:22:45.173Z,6.20
2017-11-06T19:25:13.242Z,6.20
2017-11-06T19:27:41.331Z,6.10
2017-11-06T19:30:09.504Z,6.10
2017-11-06T19:32:37.591Z,6.10
2017-11-06T19:35:06.448Z,6.00
2017-11-06T19:37:34.533Z,6.10
2017-11-06T19:40:02.608Z,6.10
2017-11-06T19:42:30.687Z,6.10
2017-11-06T19:44:59.538Z,6.10
2017-11-06T19:47:27.632Z,6.10
2017-11-06T19:49:55.703Z,6.10
2017-11-06T19:52:23.815Z,6.10
2017-11-06T19:54:51.888Z,6.10
2017-11-06T19:57:19.973Z,6.10
2017-11-06T19:59:48.061Z,6.10
2017-11-06T20:02:16.140Z,6.10
2017-11-06T20:04:44.223Z,6.10
2017-11-06T20:07:12.298Z,6.10
2017-11-06T20:09:40.479Z,6.10
2017-11-06T20:12:11.153Z,6.10
2017-11-06T20:14:39.493Z,6.10
2017-11-06T20:17:07.584Z,6.00
2017-11-06T20:19:35.672Z,6.10
2017-11-06T20:22:03.807Z,6.10
2017-11-06T20:24:31.877Z,6.10
2017-11-06T20:26:59.965Z,6.10
2017-11-06T20:29:28.070Z,6.10
2017-11-06T20:31:56.157Z,6.10
2017-11-06T20:34:24.233Z,6.00
2017-11-06T20:36:52.319Z,6.00
2017-11-06T20:39:20.409Z,6.10
2017-11-06T20:41:49.275Z,6.10
2017-11-06T20:44:17.363Z,6.00
2017-11-06T20:46:45.435Z,6.10
2017-11-06T20:49:14.276Z,6.10
2017-11-06T20:51:42.368Z,6.10
2017-11-06T20:54:10.441Z,6.00
2017-11-06T20:56:38.533Z,6.00
2017-11-06T20:59:07.383Z,6.00
2017-11-06T21:01:35.476Z,5.90
2017-11-06T21:04:03.549Z,6.00
2017-11-06T21:06:31.638Z,6.00
2017-11-06T21:09:00.485Z,6.00
2017-11-06T21:11:28.568Z,6.00
2017-11-06T21:13:56.652Z,6.00
2017-11-06T21:16:24.736Z,6.00
2017-11-06T21:18:53.576Z,5.90
2017-11-06T21:21:21.663Z,5.90
2017-11-06T21:23:49.731Z,6.00
2017-11-06T21:26:17.824Z,6.00
2017-11-06T21:28:46.672Z,6.00
2017-11-06T21:31:14.760Z,6.00
2017-11-06T21:33:42.836Z,6.00
2017-11-06T21:36:10.920Z,6.00
2017-11-06T21:38:39.764Z,6.00
2017-11-06T21:41:07.846Z,6.00
2017-11-06T21:43:35.913Z,6.00
2017-11-06T21:46:03.992Z,5.90
2017-11-06T21:48:32.076Z,5.90
2017-11-06T21:51:00.369Z,5.90
2017-11-06T21:53:29.221Z,6.00
2017-11-06T21:55:57.311Z,5.90
2017-11-06T21:58:25.395Z,6.00
2017-11-06T22:00:54.260Z,6.00
2017-11-06T22:03:22.349Z,6.00
2017-11-06T22:05:50.423Z,6.00
2017-11-06T22:08:19.293Z,6.00
2017-11-06T22:10:47.380Z,6.00
2017-11-06T22:13:15.469Z,6.00
2017-11-06T22:15:44.309Z,6.00
2017-11-06T22:18:12.410Z,5.90
2017-11-06T22:20:41.264Z,5.90
2017-11-06T22:23:09.360Z,5.80
2017-11-06T22:25:37.456Z,5.90
2017-11-06T22:28:06.311Z,5.90
2017-11-06T22:30:34.387Z,5.90
2017-11-06T22:33:02.480Z,5.90
2017-11-06T22:35:31.320Z,5.90
2017-11-06T22:37:59.399Z,5.80
2017-11-06T22:40:27.496Z,5.90
2017-11-06T22:42:56.359Z,5.90
2017-11-06T22:45:25.275Z,5.80
2017-11-06T22:47:53.365Z,5.90
2017-11-06T22:50:21.449Z,5.90
2017-11-06T22:52:49.672Z,5.90
2017-11-06T22:55:17.757Z,5.90
2017-11-06T22:57:46.619Z,5.80
2017-11-06T23:00:14.702Z,5.80
2017-11-06T23:02:42.793Z,5.90
2017-11-06T23:05:11.635Z,5.90
2017-11-06T23:07:39.730Z,5.90
2017-11-06T23:10:07.800Z,5.90
2017-11-06T23:12:35.886Z,5.90
2017-11-06T23:15:03.970Z,5.90
2017-11-06T23:17:32.061Z,5.90
2017-11-06T23:20:00.144Z,5.90
2017-11-06T23:22:29.333Z,5.90
2017-11-06T23:24:57.424Z,5.90
2017-11-06T23:27:25.741Z,5.90
2017-11-06T23:29:53.819Z,5.90
2017-11-06T23:32:22.672Z,5.80
2017-11-06T23:34:50.765Z,5.80
2017-11-06T23:37:18.843Z,5.80
2017-11-06T23:39:47.699Z,5.90
2017-11-06T23:42:15.791Z,5.80
2017-11-06T23:44:43.888Z,5.90
2017-11-06T23:47:11.963Z,5.90
2017-11-06T23:49:40.077Z,5.90
2017-11-06T23:52:08.234Z,5.90
2017-11-06T23:54:36.332Z,5.90
2017-11-06T23:57:04.634Z,5.90
2017-11-06T23:59:33.486Z,6.00
